createdAt,value
2019-03-18T00:00:44.586Z,1.30
2019-03-18T00:03:12.866Z,2.03
2019-03-18T00:05:41.914Z,1.10
2019-03-18T00:08:10.198Z,0.83
2019-03-18T00:10:38.530Z,1.10
2019-03-18T00:13:06.792Z,1.17
2019-03-18T00:15:35.076Z,0.87
2019-03-18T00:18:03.338Z,1.07
2019-03-18T00:20:32.589Z,0.90
2019-03-18T00:23:01.250Z,0.90
2019-03-18T00:25:29.643Z,1.17
2019-03-18T00:27:57.903Z,1.20
2019-03-18T00:30:26.185Z,1.10
2019-03-18T00:32:54.694Z,1.17
2019-03-18T00:35:23.025Z,1.10
2019-03-18T00:37:52.827Z,1.00
2019-03-18T00:40:21.161Z,1.27
2019-03-18T00:42:49.437Z,1.30
2019-03-18T00:45:17.703Z,0.90
2019-03-18T00:47:45.987Z,1.20
2019-03-18T00:50:14.724Z,0.90
2019-03-18T00:52:43.182Z,1.00
2019-03-18T00:55:11.450Z,1.40
2019-03-18T00:57:39.743Z,1.23
2019-03-18T01:00:11.781Z,1.10
2019-03-18T01:02:40.073Z,0.90
2019-03-18T01:05:08.326Z,1.10
2019-03-18T01:07:36.678Z,1.10
2019-03-18T01:10:06.477Z,1.00
2019-03-18T01:12:34.778Z,1.20
2019-03-18T01:15:03.133Z,0.93
2019-03-18T01:17:31.391Z,1.00
2019-03-18T01:19:59.682Z,0.90
2019-03-18T01:22:27.958Z,1.30
2019-03-18T01:24:56.233Z,1.13
2019-03-18T01:27:25.476Z,1.10
2019-03-18T01:29:53.910Z,0.90
2019-03-18T01:32:22.171Z,1.00
2019-03-18T01:34:50.448Z,1.10
2019-03-18T01:37:18.637Z,1.10
2019-03-18T01:39:47.161Z,1.20
2019-03-18T01:42:16.807Z,0.90
2019-03-18T01:44:45.309Z,1.33
2019-03-18T01:47:13.493Z,1.00
2019-03-18T01:49:41.697Z,1.30
2019-03-18T01:52:10.185Z,1.17
2019-03-18T01:54:38.373Z,1.10
2019-03-18T01:57:07.687Z,1.20
2019-03-18T01:59:35.954Z,1.10
2019-03-18T02:02:04.229Z,1.30
2019-03-18T02:04:32.410Z,0.97
2019-03-18T02:07:01.194Z,1.00
2019-03-18T02:09:29.454Z,1.17
2019-03-18T02:11:57.744Z,1.50
2019-03-18T02:14:26.002Z,1.00
2019-03-18T02:16:54.267Z,1.20
2019-03-18T02:19:22.556Z,1.13
2019-03-18T02:21:50.817Z,1.40
2019-03-18T02:24:20.119Z,1.23
2019-03-18T02:26:48.377Z,1.53
2019-03-18T02:29:16.657Z,1.10
2019-03-18T02:31:44.859Z,1.10
2019-03-18T02:34:13.122Z,1.40
2019-03-18T02:36:41.392Z,1.23
2019-03-18T02:39:09.949Z,1.20
2019-03-18T02:41:38.322Z,1.20
2019-03-18T02:44:06.606Z,1.27
2019-03-18T02:46:34.869Z,1.33
2019-03-18T02:49:03.701Z,1.30
2019-03-18T02:51:31.990Z,1.40
2019-03-18T02:54:00.250Z,1.40
2019-03-18T02:56:28.546Z,1.50
2019-03-18T02:58:56.794Z,1.60
2019-03-18T03:01:25.071Z,1.50
2019-03-18T03:03:53.334Z,1.70
2019-03-18T03:06:21.615Z,1.20
2019-03-18T03:08:50.959Z,1.10
2019-03-18T03:11:19.246Z,1.70
2019-03-18T03:13:47.509Z,1.60
2019-03-18T03:16:26.296Z,1.27
2019-03-18T03:18:45.717Z,1.30
2019-03-18T03:21:13.976Z,1.30
2019-03-18T03:23:42.159Z,1.50
2019-03-18T03:26:10.470Z,1.20
2019-03-18T03:28:38.730Z,1.63
2019-03-18T03:31:07.779Z,1.10
2019-03-18T03:33:36.062Z,1.40
2019-03-18T03:36:04.326Z,1.10
2019-03-18T03:38:32.542Z,1.43
2019-03-18T03:41:00.802Z,1.83
2019-03-18T03:43:29.143Z,1.50
2019-03-18T03:45:57.355Z,1.87
2019-03-18T03:48:25.648Z,1.50
2019-03-18T03:50:53.903Z,1.40
2019-03-18T03:53:22.175Z,1.97
2019-03-18T03:55:50.813Z,1.30
2019-03-18T03:58:19.160Z,1.50
2019-03-18T04:00:48.196Z,1.20
2019-03-18T04:03:16.570Z,1.43
2019-03-18T04:05:44.827Z,1.37
2019-03-18T04:08:13.110Z,1.50
2019-03-18T04:10:41.629Z,1.60
2019-03-18T04:13:09.833Z,1.30
2019-03-18T04:15:38.091Z,1.40
2019-03-18T04:18:06.349Z,1.50
2019-03-18T04:20:34.551Z,1.20
2019-03-18T04:23:02.753Z,1.10
2019-03-18T04:25:31.035Z,1.43
2019-03-18T04:27:59.273Z,1.70
2019-03-18T04:30:27.517Z,1.57
2019-03-18T04:32:55.751Z,1.40
2019-03-18T04:35:24.035Z,1.60
2019-03-18T04:37:52.403Z,1.30
2019-03-18T04:40:20.682Z,1.60
2019-03-18T04:42:48.943Z,1.60
2019-03-18T04:45:17.225Z,1.07
2019-03-18T04:47:45.426Z,1.03
2019-03-18T04:50:13.698Z,1.50
2019-03-18T04:52:41.967Z,1.13
2019-03-18T04:55:10.312Z,1.10
2019-03-18T04:57:38.493Z,1.70
2019-03-18T05:00:08.294Z,1.43
2019-03-18T05:02:36.587Z,1.20
2019-03-18T05:05:04.919Z,1.30
2019-03-18T05:07:33.202Z,1.40
2019-03-18T05:10:01.465Z,1.43
2019-03-18T05:12:29.751Z,1.57
2019-03-18T05:14:58.013Z,1.13
2019-03-18T05:17:27.116Z,1.00
2019-03-18T05:19:55.957Z,1.40
2019-03-18T05:22:25.780Z,1.20
2019-03-18T05:24:54.143Z,1.50
2019-03-18T05:27:22.986Z,1.00
2019-03-18T05:29:51.248Z,1.30
2019-03-18T05:32:19.549Z,1.20
2019-03-18T05:34:48.015Z,1.30
2019-03-18T05:37:16.250Z,1.13
2019-03-18T05:39:44.531Z,1.30
2019-03-18T05:42:12.793Z,1.50
2019-03-18T05:44:41.074Z,1.10
2019-03-18T05:47:09.334Z,1.40
2019-03-18T05:49:37.794Z,1.20
2019-03-18T05:52:05.989Z,1.10
2019-03-18T05:54:34.279Z,1.30
2019-03-18T05:57:02.535Z,1.20
2019-03-18T05:59:30.822Z,1.20
2019-03-18T06:01:59.081Z,1.37
2019-03-18T06:04:27.381Z,1.53
2019-03-18T06:06:55.572Z,1.37
2019-03-18T06:09:23.830Z,1.43
2019-03-18T06:11:52.179Z,1.33
2019-03-18T06:14:20.429Z,1.43
2019-03-18T06:16:48.642Z,1.70
2019-03-18T06:19:16.903Z,1.27
2019-03-18T06:21:45.190Z,1.30
2019-03-18T06:24:13.456Z,1.47
2019-03-18T06:26:41.666Z,1.33
2019-03-18T06:29:09.852Z,1.30
2019-03-18T06:31:38.135Z,1.30
2019-03-18T06:34:06.326Z,1.80
2019-03-18T06:36:34.606Z,1.37
2019-03-18T06:39:02.866Z,1.47
2019-03-18T06:41:31.130Z,1.30
2019-03-18T06:43:59.550Z,1.17
2019-03-18T06:46:27.741Z,1.10
2019-03-18T06:48:56.526Z,1.33
2019-03-18T06:51:24.794Z,1.27
2019-03-18T06:53:53.079Z,1.50
2019-03-18T06:56:21.598Z,1.00
2019-03-18T06:58:50.682Z,1.27
2019-03-18T07:01:18.938Z,1.10
2019-03-18T07:03:47.222Z,1.03
2019-03-18T07:06:15.478Z,1.27
2019-03-18T07:08:43.761Z,1.40
2019-03-18T07:11:11.957Z,1.50
2019-03-18T07:13:40.219Z,1.20
2019-03-18T07:16:08.514Z,1.97
2019-03-18T07:18:36.770Z,1.20
2019-03-18T07:21:05.622Z,1.43
2019-03-18T07:23:33.878Z,1.37
2019-03-18T07:26:02.162Z,1.40
2019-03-18T07:28:30.349Z,1.60
2019-03-18T07:30:58.557Z,1.37
2019-03-18T07:33:27.698Z,1.07
2019-03-18T07:35:55.991Z,1.43
2019-03-18T07:38:24.251Z,1.30
2019-03-18T07:40:52.773Z,1.83
2019-03-18T07:43:21.063Z,1.23
2019-03-18T07:45:49.722Z,1.50
2019-03-18T07:48:29.987Z,1.20
2019-03-18T07:50:48.026Z,1.50
2019-03-18T07:53:18.279Z,1.53
2019-03-18T07:55:46.145Z,1.80
2019-03-18T07:58:14.349Z,1.43
2019-03-18T08:00:42.691Z,1.30
2019-03-18T08:03:10.974Z,1.37
2019-03-18T08:05:39.246Z,1.20
2019-03-18T08:08:07.459Z,1.13
2019-03-18T08:10:35.717Z,1.27
2019-03-18T08:13:03.938Z,1.30
2019-03-18T08:15:32.202Z,4.10
2019-03-18T08:18:00.489Z,2.07
2019-03-18T08:20:28.746Z,1.40
2019-03-18T08:22:57.015Z,1.50
2019-03-18T08:25:25.291Z,1.20
2019-03-18T08:27:53.550Z,1.47
2019-03-18T08:30:21.845Z,1.37
2019-03-18T08:32:50.097Z,1.10
2019-03-18T08:35:18.311Z,1.40
2019-03-18T08:37:46.574Z,1.40
2019-03-18T08:40:14.782Z,1.57
2019-03-18T08:42:44.221Z,1.53
2019-03-18T08:45:12.879Z,1.67
2019-03-18T08:47:41.246Z,1.23
2019-03-18T08:50:12.270Z,2.70
2019-03-18T08:52:39.897Z,1.60
2019-03-18T08:55:11.277Z,1.30
2019-03-18T08:57:39.590Z,1.50
2019-03-18T09:00:09.498Z,2.00
2019-03-18T09:02:37.752Z,1.50
2019-03-18T09:05:06.485Z,2.07
2019-03-18T09:07:34.761Z,1.70
2019-03-18T09:10:03.500Z,2.13
2019-03-18T09:12:31.769Z,2.07
2019-03-18T09:14:59.957Z,1.30
2019-03-18T09:17:28.161Z,1.30
2019-03-18T09:19:57.150Z,1.80
2019-03-18T09:22:25.444Z,1.30
2019-03-18T09:24:53.703Z,1.53
2019-03-18T09:27:21.981Z,1.80
2019-03-18T09:29:50.175Z,1.60
2019-03-18T09:32:18.504Z,1.30
2019-03-18T09:34:46.781Z,1.87
2019-03-18T09:37:15.039Z,1.63
2019-03-18T09:39:43.324Z,2.17
2019-03-18T09:42:11.582Z,1.70
2019-03-18T09:44:39.870Z,1.27
2019-03-18T09:47:08.194Z,2.13
2019-03-18T09:49:36.402Z,1.33
2019-03-18T09:52:04.711Z,1.43
2019-03-18T09:54:32.961Z,2.30
2019-03-18T09:57:02.521Z,1.57
2019-03-18T09:59:31.067Z,1.37
2019-03-18T10:01:59.353Z,1.60
2019-03-18T10:04:27.632Z,1.10
2019-03-18T10:06:55.889Z,1.30
2019-03-18T10:09:24.157Z,1.20
2019-03-18T10:11:52.450Z,1.20
2019-03-18T10:14:21.527Z,1.37
2019-03-18T10:16:49.809Z,1.20
2019-03-18T10:19:19.061Z,1.10
2019-03-18T10:21:47.538Z,1.20
2019-03-18T10:24:15.794Z,1.07
2019-03-18T10:26:44.688Z,1.10
2019-03-18T10:29:12.977Z,1.33
2019-03-18T10:31:41.238Z,1.20
2019-03-18T10:34:09.505Z,1.43
2019-03-18T10:36:39.326Z,1.10
2019-03-18T10:39:07.653Z,1.00
2019-03-18T10:41:35.936Z,1.10
2019-03-18T10:44:05.457Z,1.10
2019-03-18T10:46:33.649Z,1.13
2019-03-18T10:49:01.929Z,0.90
2019-03-18T10:51:31.959Z,1.10
2019-03-18T10:54:00.122Z,0.93
2019-03-18T10:56:28.382Z,1.10
2019-03-18T10:58:56.665Z,1.20
2019-03-18T11:01:25.189Z,1.00
2019-03-18T11:03:53.475Z,1.10
2019-03-18T11:06:21.742Z,1.40
2019-03-18T11:08:50.042Z,1.00
2019-03-18T11:11:18.302Z,0.90
2019-03-18T11:13:46.487Z,1.10
2019-03-18T11:16:14.761Z,1.40
2019-03-18T11:18:42.950Z,1.93
2019-03-18T11:21:11.241Z,0.80
2019-03-18T11:23:39.510Z,0.90
2019-03-18T11:26:07.790Z,2.60
2019-03-18T11:28:36.048Z,1.97
2019-03-18T11:31:04.259Z,1.20
2019-03-18T11:33:32.513Z,1.00
2019-03-18T11:36:00.814Z,1.20
2019-03-18T11:38:31.754Z,1.17
2019-03-18T11:40:58.964Z,1.20
2019-03-18T11:43:27.183Z,1.93
2019-03-18T11:45:55.446Z,1.00
2019-03-18T11:48:23.922Z,1.00
2019-03-18T11:50:52.195Z,0.80
2019-03-18T11:53:20.491Z,1.13
2019-03-18T11:55:48.737Z,0.90
2019-03-18T11:58:16.947Z,0.77
2019-03-18T12:00:45.986Z,1.10
2019-03-18T12:03:14.337Z,1.00
2019-03-18T12:05:42.597Z,0.90
2019-03-18T12:08:10.955Z,1.10
2019-03-18T12:10:39.225Z,1.50
2019-03-18T12:13:07.418Z,0.80
2019-03-18T12:15:36.622Z,1.33
2019-03-18T12:18:05.041Z,1.00
2019-03-18T12:20:33.378Z,0.90
2019-03-18T12:23:01.600Z,1.00
2019-03-18T12:25:30.134Z,1.00
2019-03-18T12:27:58.473Z,0.93
2019-03-18T12:30:27.228Z,0.80
2019-03-18T12:32:55.490Z,1.20
2019-03-18T12:35:23.778Z,0.97
2019-03-18T12:37:52.041Z,0.93
2019-03-18T12:40:20.297Z,1.00
2019-03-18T12:42:48.583Z,1.20
2019-03-18T12:45:18.315Z,0.93
2019-03-18T12:47:46.762Z,1.33
2019-03-18T12:50:16.085Z,1.30
2019-03-18T12:52:44.293Z,1.00
2019-03-18T12:55:12.727Z,1.10
2019-03-18T12:57:41.001Z,0.80
2019-03-18T13:00:11.142Z,0.93
2019-03-18T13:02:39.417Z,1.13
2019-03-18T13:05:08.582Z,1.63
2019-03-18T13:07:36.862Z,1.03
2019-03-18T13:10:06.662Z,0.83
2019-03-18T13:12:34.934Z,1.00
2019-03-18T13:15:04.578Z,0.90
2019-03-18T13:17:32.848Z,0.90
2019-03-18T13:20:01.256Z,1.10
2019-03-18T13:22:29.509Z,1.80
2019-03-18T13:24:57.738Z,1.20
2019-03-18T13:27:26.015Z,1.10
2019-03-18T13:29:54.306Z,1.57
2019-03-18T13:32:22.494Z,0.90
2019-03-18T13:34:50.795Z,1.70
2019-03-18T13:37:19.029Z,1.20
2019-03-18T13:39:47.233Z,1.43
2019-03-18T13:42:15.415Z,3.57
2019-03-18T13:44:43.633Z,2.23
2019-03-18T13:47:11.819Z,1.70
2019-03-18T13:49:40.069Z,2.40
2019-03-18T13:52:08.277Z,1.43
2019-03-18T13:54:36.546Z,0.97
2019-03-18T13:57:04.830Z,1.20
2019-03-18T13:59:33.097Z,1.37
2019-03-18T14:02:01.623Z,1.00
2019-03-18T14:04:29.890Z,0.80
2019-03-18T14:06:58.176Z,1.20
2019-03-18T14:09:26.439Z,0.90
2019-03-18T14:11:54.727Z,1.10
2019-03-18T14:14:22.982Z,1.17
2019-03-18T14:16:51.353Z,1.07
2019-03-18T14:19:19.613Z,1.07
2019-03-18T14:21:47.807Z,1.10
2019-03-18T14:24:16.081Z,1.60
2019-03-18T14:26:44.342Z,1.60
2019-03-18T14:29:12.634Z,1.40
2019-03-18T14:31:43.433Z,1.40
2019-03-18T14:34:10.811Z,1.60
2019-03-18T14:36:39.070Z,1.20
2019-03-18T14:39:07.406Z,1.70
2019-03-18T14:41:35.661Z,2.07
2019-03-18T14:44:03.945Z,1.63
2019-03-18T14:46:32.208Z,1.13
2019-03-18T14:49:00.485Z,1.63
2019-03-18T14:51:28.745Z,1.47
2019-03-18T14:53:57.106Z,1.20
2019-03-18T14:56:25.294Z,1.37
2019-03-18T14:58:53.477Z,1.30
2019-03-18T15:01:21.826Z,1.40
2019-03-18T15:03:50.873Z,1.00
2019-03-18T15:06:19.164Z,1.30
2019-03-18T15:08:47.422Z,1.40
2019-03-18T15:11:15.714Z,1.30
2019-03-18T15:13:43.999Z,1.40
2019-03-18T15:16:12.270Z,1.20
2019-03-18T15:18:40.533Z,1.40
2019-03-18T15:21:08.823Z,1.17
2019-03-18T15:23:37.073Z,1.20
2019-03-18T15:26:05.407Z,1.03
2019-03-18T15:28:33.738Z,1.00
2019-03-18T15:31:02.714Z,0.93
2019-03-18T15:33:31.002Z,1.10
2019-03-18T15:35:59.258Z,1.13
2019-03-18T15:38:27.534Z,1.27
2019-03-18T15:40:55.721Z,1.60
2019-03-18T15:43:24.023Z,1.30
2019-03-18T15:45:52.281Z,1.30
2019-03-18T15:48:20.614Z,2.20
2019-03-18T15:50:48.898Z,1.20
2019-03-18T15:53:17.086Z,1.60
2019-03-18T15:55:45.372Z,1.00
2019-03-18T15:58:13.630Z,1.03
2019-03-18T16:00:41.914Z,1.37
2019-03-18T16:03:10.270Z,1.40
2019-03-18T16:05:38.557Z,0.87
2019-03-18T16:08:06.818Z,1.20
2019-03-18T16:10:35.101Z,1.00
2019-03-18T16:13:03.298Z,1.30
2019-03-18T16:15:31.553Z,1.20
2019-03-18T16:17:59.874Z,1.27
2019-03-18T16:20:28.127Z,2.63
2019-03-18T16:22:56.409Z,2.10
2019-03-18T16:25:24.594Z,1.13
2019-03-18T16:27:52.803Z,2.03
2019-03-18T16:30:21.550Z,1.37
2019-03-18T16:32:49.824Z,1.40
2019-03-18T16:35:18.100Z,1.47
2019-03-18T16:37:46.378Z,1.40
2019-03-18T16:40:18.890Z,1.30
2019-03-18T16:42:47.197Z,1.10
2019-03-18T16:45:15.828Z,1.20
2019-03-18T16:47:44.162Z,1.20
2019-03-18T16:50:13.241Z,1.80
2019-03-18T16:52:41.426Z,1.60
2019-03-18T16:55:09.877Z,1.43
2019-03-18T16:57:38.139Z,1.50
2019-03-18T17:00:10.990Z,1.50
2019-03-18T17:02:39.269Z,1.40
2019-03-18T17:05:07.828Z,1.57
2019-03-18T17:07:36.078Z,1.27
2019-03-18T17:10:05.826Z,1.40
2019-03-18T17:12:34.085Z,1.60
2019-03-18T17:15:02.292Z,2.47
2019-03-18T17:17:30.550Z,1.60
2019-03-18T17:19:58.834Z,2.00
2019-03-18T17:22:27.023Z,1.50
2019-03-18T17:24:55.342Z,1.80
2019-03-18T17:27:23.586Z,1.50
2019-03-18T17:29:51.852Z,1.70
2019-03-18T17:32:20.131Z,1.70
2019-03-18T17:34:48.322Z,1.37
2019-03-18T17:37:16.521Z,1.70
2019-03-18T17:39:45.498Z,1.37
2019-03-18T17:42:13.782Z,2.37
2019-03-18T17:44:42.056Z,1.80
2019-03-18T17:47:10.336Z,1.07
2019-03-18T17:49:38.593Z,6.70
2019-03-18T17:52:06.882Z,23.13
2019-03-18T17:54:35.142Z,0.83
2019-03-18T17:57:07.510Z,0.97
2019-03-18T17:59:33.419Z,1.40
2019-03-18T18:02:01.910Z,1.33
2019-03-18T18:04:30.198Z,1.07
2019-03-18T18:06:58.468Z,1.07
2019-03-18T18:09:26.755Z,1.23
2019-03-18T18:11:55.025Z,6.73
2019-03-18T18:14:23.302Z,9.90
2019-03-18T18:16:51.567Z,2.60
2019-03-18T18:19:20.678Z,3.50
2019-03-18T18:21:49.202Z,9.80
2019-03-18T18:24:17.486Z,3.30
2019-03-18T18:26:45.675Z,2.43
2019-03-18T18:29:13.974Z,3.83
2019-03-18T18:31:42.238Z,5.77
2019-03-18T18:34:11.001Z,3.17
2019-03-18T18:36:39.290Z,5.30
2019-03-18T18:39:07.663Z,4.73
2019-03-18T18:41:35.950Z,2.37
2019-03-18T18:44:04.281Z,3.07
2019-03-18T18:46:32.570Z,2.60
2019-03-18T18:49:00.829Z,2.10
2019-03-18T18:51:29.119Z,2.50
2019-03-18T18:53:57.378Z,2.80
2019-03-18T18:56:25.658Z,2.63
2019-03-18T18:58:54.597Z,3.37
2019-03-18T19:01:24.397Z,2.57
2019-03-18T19:03:52.643Z,2.60
2019-03-18T19:06:20.899Z,2.13
2019-03-18T19:08:50.203Z,1.90
2019-03-18T19:11:18.465Z,1.93
2019-03-18T19:13:46.781Z,2.60
2019-03-18T19:16:15.023Z,3.13
2019-03-18T19:18:43.306Z,3.90
2019-03-18T19:21:11.569Z,3.00
2019-03-18T19:23:40.191Z,3.07
2019-03-18T19:26:08.453Z,3.40
2019-03-18T19:28:38.418Z,2.70
2019-03-18T19:31:06.629Z,3.33
2019-03-18T19:33:34.838Z,2.47
2019-03-18T19:36:03.110Z,2.00
2019-03-18T19:38:31.407Z,2.50
2019-03-18T19:40:59.601Z,2.53
2019-03-18T19:43:27.892Z,2.57
2019-03-18T19:45:56.169Z,2.77
2019-03-18T19:48:24.691Z,2.77
2019-03-18T19:50:52.972Z,2.47
2019-03-18T19:53:21.223Z,3.10
2019-03-18T19:55:49.507Z,3.53
2019-03-18T19:58:17.770Z,3.10
2019-03-18T20:00:45.986Z,4.97
2019-03-18T20:03:14.255Z,5.07
2019-03-18T20:05:42.533Z,3.90
2019-03-18T20:08:10.721Z,6.10
2019-03-18T20:10:39.347Z,12.67
2019-03-18T20:13:07.614Z,6.53
2019-03-18T20:15:36.143Z,4.50
2019-03-18T20:18:04.501Z,3.23
2019-03-18T20:20:32.697Z,3.30
2019-03-18T20:23:00.977Z,3.30
2019-03-18T20:25:29.593Z,3.53
2019-03-18T20:27:57.904Z,3.63
2019-03-18T20:30:26.222Z,4.43
2019-03-18T20:32:54.561Z,4.93
2019-03-18T20:35:23.279Z,4.90
2019-03-18T20:37:52.401Z,4.83
2019-03-18T20:40:21.082Z,8.10
2019-03-18T20:42:49.496Z,10.57
2019-03-18T20:45:18.109Z,10.80
2019-03-18T20:47:46.346Z,5.43
2019-03-18T20:50:16.498Z,3.80
2019-03-18T20:52:44.810Z,3.70
2019-03-18T20:55:14.303Z,4.00
2019-03-18T20:57:42.673Z,3.90
2019-03-18T21:00:18.810Z,3.97
2019-03-18T21:02:47.097Z,3.10
2019-03-18T21:05:15.479Z,4.37
2019-03-18T21:07:43.728Z,3.67
2019-03-18T21:10:12.481Z,3.70
2019-03-18T21:12:41.498Z,3.20
2019-03-18T21:15:10.973Z,2.97
2019-03-18T21:17:39.224Z,3.47
2019-03-18T21:20:09.178Z,4.43
2019-03-18T21:22:38.570Z,3.50
2019-03-18T21:25:07.463Z,3.40
2019-03-18T21:27:35.737Z,3.80
2019-03-18T21:30:08.453Z,4.20
2019-03-18T21:32:36.917Z,5.33
2019-03-18T21:35:05.882Z,4.87
2019-03-18T21:37:34.270Z,5.07
2019-03-18T21:40:02.818Z,4.73
2019-03-18T21:42:32.282Z,5.67
2019-03-18T21:45:00.466Z,4.53
2019-03-18T21:47:28.765Z,4.90
2019-03-18T21:49:58.554Z,5.33
2019-03-18T21:52:26.843Z,5.40
2019-03-18T21:54:55.103Z,6.10
2019-03-18T21:57:23.338Z,4.97
2019-03-18T21:59:51.610Z,6.00
2019-03-18T22:02:20.826Z,5.10
2019-03-18T22:04:49.053Z,4.50
2019-03-18T22:07:17.306Z,4.40
2019-03-18T22:09:45.514Z,4.70
2019-03-18T22:12:13.775Z,4.40
2019-03-18T22:14:42.061Z,4.20
2019-03-18T22:17:10.251Z,4.40
2019-03-18T22:19:38.534Z,4.10
2019-03-18T22:22:06.804Z,4.27
2019-03-18T22:24:44.933Z,4.33
2019-03-18T22:27:06.652Z,3.90
2019-03-18T22:29:34.917Z,4.33
2019-03-18T22:32:03.131Z,6.70
2019-03-18T22:34:31.390Z,5.00
2019-03-18T22:36:59.678Z,5.07
2019-03-18T22:39:27.938Z,5.20
2019-03-18T22:41:56.218Z,5.60
2019-03-18T22:44:24.408Z,5.90
2019-03-18T22:46:52.682Z,5.40
2019-03-18T22:49:21.198Z,6.10
2019-03-18T22:51:49.413Z,5.83
2019-03-18T22:54:17.677Z,6.37
2019-03-18T22:56:45.954Z,6.20
2019-03-18T22:59:14.205Z,6.27
2019-03-18T23:01:43.749Z,5.93
2019-03-18T23:04:11.934Z,5.33
2019-03-18T23:06:40.194Z,6.73
2019-03-18T23:09:08.484Z,5.10
2019-03-18T23:11:36.737Z,5.00
2019-03-18T23:14:05.031Z,6.23
2019-03-18T23:16:33.465Z,5.13
2019-03-18T23:19:01.674Z,6.10
2019-03-18T23:21:29.867Z,6.47
2019-03-18T23:23:58.161Z,5.23
2019-03-18T23:26:27.957Z,6.30
2019-03-18T23:28:56.173Z,5.00
2019-03-18T23:31:24.425Z,5.70
2019-03-18T23:33:52.641Z,5.73
2019-03-18T23:36:20.832Z,6.17
2019-03-18T23:38:50.109Z,6.10
2019-03-18T23:41:18.390Z,6.50
2019-03-18T23:43:46.650Z,6.97
2019-03-18T23:46:14.926Z,6.93
2019-03-18T23:48:43.110Z,6.60
2019-03-18T23:51:13.036Z,6.40
2019-03-18T23:53:41.293Z,6.43
2019-03-18T23:56:09.577Z,6.50
2019-03-18T23:58:38.096Z,5.87
